Time;durP1;ratioP1;P1;durP2;ratioP2;P2;SDS_P1;SDS_P2;PMS_P1;PMS_P2;Temp;Humidity;BMP_temperature;BMP_pressure;BME280_temperature;BME280_humidity;BME280_pressure;Samples;Min_cycle;Max_cycle;Signal;HPM_P1;HPM_P2
2021/05/30 00:01:06;;;;;;;5.15;4.65;;;;;;;29.19;59.76;100895.13;5067057;27;65314;-35
2021/05/30 00:03:37;;;;;;;5.32;4.93;;;;;;;29.20;60.38;100886.00;5072770;27;69160;-36
2021/05/30 00:06:07;;;;;;;5.25;4.78;;;;;;;29.22;60.27;100883.91;5068660;27;65408;-35
2021/05/30 00:08:38;;;;;;;4.60;4.20;;;;;;;29.28;60.27;100893.03;5068695;28;69877;-35
2021/05/30 00:11:09;;;;;;;5.35;4.95;;;;;;;29.30;59.96;100886.38;5055441;28;66021;-35
2021/05/30 00:13:39;;;;;;;5.28;4.78;;;;;;;29.29;60.34;100884.75;5059470;28;69973;-36
2021/05/30 00:16:10;;;;;;;5.10;4.70;;;;;;;29.37;60.47;100886.41;5056418;28;65957;-35
2021/05/30 00:18:40;;;;;;;5.35;4.95;;;;;;;29.39;60.24;100881.59;5062901;28;70045;-35
2021/05/30 00:21:11;;;;;;;4.47;4.18;;;;;;;29.43;60.87;100887.44;5063150;27;65389;-35
2021/05/30 00:23:41;;;;;;;5.38;4.88;;;;;;;29.45;60.72;100886.19;5066091;27;70058;-35
2021/05/30 00:26:12;;;;;;;5.07;4.68;;;;;;;29.44;61.14;100878.25;5065394;28;65882;-35
2021/05/30 00:28:42;;;;;;;6.45;5.40;;;;;;;29.53;62.42;100885.09;5068820;28;69953;-35
2021/05/30 00:31:13;;;;;;;7.00;6.32;;;;;;;29.60;63.56;100891.34;5076226;27;66194;-30
2021/05/30 00:33:45;;;;;;;6.35;5.95;;;;;;;29.65;64.41;100888.88;5073934;27;70095;-30
2021/05/30 00:36:16;;;;;;;13.35;7.13;;;;;;;29.70;66.04;100897.19;5074952;28;66072;-30
2021/05/30 00:38:47;;;;;;;7.47;6.78;;;;;;;29.78;65.66;100894.25;5076438;27;69987;-31
2021/05/30 00:41:17;;;;;;;11.55;7.50;;;;;;;29.86;67.16;100895.03;5069426;28;66535;-31
2021/05/30 00:43:54;;;;;;;7.95;7.22;;;;;;;29.90;67.84;100901.69;5067867;27;69305;-31
2021/05/30 00:46:25;;;;;;;7.95;7.15;;;;;;;29.92;67.75;100891.47;5061781;28;66150;-31
2021/05/30 00:48:59;;;;;;;11.13;6.65;;;;;;;30.04;67.72;100903.31;5069336;27;69253;-38
2021/05/30 00:51:35;;;;;;;8.77;7.45;;;;;;;30.08;68.58;100906.41;5069411;27;66003;-31
2021/05/30 00:54:07;;;;;;;7.50;6.80;;;;;;;30.14;68.18;100909.06;5064165;27;70234;-31
2021/05/30 00:56:40;;;;;;;9.95;7.40;;;;;;;29.91;68.01;100865.47;5048312;28;65155;-31
2021/05/30 00:59:11;;;;;;;8.10;6.35;;;;;;;30.27;68.68;100919.88;5078502;27;69740;-31
2021/05/30 01:01:43;;;;;;;6.43;5.88;;;;;;;30.04;68.43;100882.50;5078922;27;66274;-31
2021/05/30 01:04:14;;;;;;;6.53;6.03;;;;;;;30.37;68.07;100926.69;5066713;27;69822;-31
2021/05/30 01:06:44;;;;;;;7.63;5.95;;;;;;;30.44;68.52;100932.91;5076910;27;66984;-31
2021/05/30 01:09:15;;;;;;;9.30;6.90;;;;;;;30.46;68.78;100938.94;5076944;27;69053;-31
2021/05/30 01:11:47;;;;;;;8.27;6.75;;;;;;;30.49;69.00;100931.22;5075704;27;65350;-31
2021/05/30 01:14:18;;;;;;;10.40;6.20;;;;;;;30.57;68.04;100940.97;5069600;28;69316;-31
2021/05/30 01:16:50;;;;;;;6.90;6.30;;;;;;;30.63;68.44;100945.50;5070683;27;66191;-32
2021/05/30 01:19:26;;;;;;;7.55;6.45;;;;;;;30.40;68.15;100901.91;5070493;28;70573;-32
2021/05/30 01:21:59;;;;;;;12.52;6.95;;;;;;;30.72;68.12;100946.91;5071374;28;66978;-31
2021/05/30 01:24:29;;;;;;;7.90;5.40;;;;;;;30.76;68.36;100950.03;5067769;27;69626;-31
2021/05/30 01:27:00;;;;;;;8.10;6.85;;;;;;;30.79;68.22;100946.06;5067187;27;66915;-32
2021/05/30 01:29:31;;;;;;;20.58;6.88;;;;;;;30.73;67.94;100935.03;5069246;27;68966;-31
2021/05/30 01:32:02;;;;;;;10.52;6.78;;;;;;;30.81;67.61;100938.56;5068296;28;65342;-31
2021/05/30 01:34:33;;;;;;;9.90;6.60;;;;;;;30.88;67.99;100951.00;5066920;27;69932;-31
2021/05/30 01:37:04;;;;;;;10.38;5.63;;;;;;;30.91;67.47;100952.44;5067749;28;65710;-31
2021/05/30 01:39:34;;;;;;;6.20;5.40;;;;;;;30.92;67.56;100943.25;5069457;28;69663;-31
2021/05/30 01:42:06;;;;;;;6.13;5.25;;;;;;;30.96;67.57;100940.97;5062724;28;65288;-31
2021/05/30 01:44:36;;;;;;;6.63;5.57;;;;;;;30.72;67.22;100906.28;5075419;27;69137;-31
2021/05/30 01:47:06;;;;;;;12.38;5.93;;;;;;;30.99;67.78;100938.63;5072690;27;65303;-32
2021/05/30 01:49:37;;;;;;;12.05;5.75;;;;;;;31.04;67.33;100925.28;5070308;28;69902;-33
2021/05/30 01:52:09;;;;;;;5.97;5.43;;;;;;;31.07;66.79;100932.13;5074406;28;66040;-32
2021/05/30 01:54:43;;;;;;;;;;;;;;;30.90;67.99;100929.13;5078396;27;69920;-32
2021/05/30 01:57:15;;;;;;;12.45;4.88;;;;;;;30.82;66.77;100888.78;5075849;27;65776;-31
2021/05/30 01:59:46;;;;;;;18.55;6.10;;;;;;;31.11;67.39;100926.03;5072812;27;69090;-31
2021/05/30 02:02:17;;;;;;;9.80;5.55;;;;;;;31.14;66.95;100924.75;5079004;27;66270;-31
2021/05/30 02:04:49;;;;;;;14.23;5.63;;;;;;;31.20;67.14;100928.47;5067337;27;68896;-32
2021/05/30 02:07:21;;;;;;;16.25;5.10;;;;;;;31.21;67.35;100927.44;5079567;27;66092;-32
2021/05/30 02:09:51;;;;;;;10.50;5.32;;;;;;;31.23;67.18;100931.59;5079308;27;70179;-31
2021/05/30 02:12:22;;;;;;;7.03;4.65;;;;;;;31.21;66.77;100924.72;5065385;28;65971;-31
2021/05/30 02:14:57;;;;;;;5.63;4.68;;;;;;;31.19;66.66;100924.09;5075993;28;71189;-31
2021/05/30 02:17:28;;;;;;;9.07;5.32;;;;;;;31.27;66.58;100924.66;5061867;27;65707;-31
2021/05/30 02:19:59;;;;;;;9.43;5.77;;;;;;;31.29;67.02;100916.31;5072148;28;70325;-32
2021/05/30 02:22:31;;;;;;;9.15;5.18;;;;;;;31.34;66.21;100924.59;5074104;27;65177;-30
2021/05/30 02:25:03;;;;;;;12.73;4.10;;;;;;;31.37;66.73;100918.75;5070755;28;70210;-31
2021/05/30 02:27:34;;;;;;;8.43;6.55;;;;;;;31.26;65.64;100895.06;5079143;27;65888;-31
2021/05/30 02:30:05;;;;;;;9.15;7.63;;;;;;;31.43;65.91;100907.03;5070334;27;70374;-31
2021/05/30 02:32:36;;;;;;;;;;;;;;;31.29;66.35;100900.06;5068832;27;66102;-31
2021/05/30 02:35:07;;;;;;;8.38;7.40;;;;;;;31.50;65.78;100902.34;5069850;28;69785;-31
2021/05/30 02:37:37;;;;;;;15.52;6.95;;;;;;;31.52;65.70;100902.97;5065267;27;66261;-33
2021/05/30 02:40:11;;;;;;;10.95;6.05;;;;;;;31.53;65.07;100895.66;5065740;27;70262;-31
2021/05/30 02:42:44;;;;;;;6.40;5.20;;;;;;;31.59;65.74;100895.59;5065825;28;65404;-32
2021/05/30 02:45:15;;;;;;;15.57;4.93;;;;;;;31.59;65.71;100895.59;5069565;28;69996;-31
2021/05/30 02:47:47;;;;;;;9.93;5.18;;;;;;;31.59;66.23;100894.75;5073230;27;65303;-31
2021/05/30 02:50:19;;;;;;;8.73;5.03;;;;;;;31.53;64.02;100891.06;5067951;28;69155;-32
2021/05/30 02:52:50;;;;;;;8.63;4.20;;;;;;;31.39;62.12;100890.38;5067637;28;67227;-31
2021/05/30 02:55:21;;;;;;;8.13;4.78;;;;;;;31.21;60.00;100893.03;5068336;27;69589;-31
2021/05/30 02:57:52;;;;;;;4.15;3.70;;;;;;;31.02;58.30;100884.00;5060077;27;66639;-33
2021/05/30 03:00:26;;;;;;;6.47;4.63;;;;;;;30.89;57.62;100887.66;5067086;28;69243;-31
2021/05/30 03:02:56;;;;;;;9.73;4.20;;;;;;;30.77;57.20;100892.09;5062484;27;66280;-31
2021/05/30 03:05:27;;;;;;;4.82;4.13;;;;;;;30.62;56.95;100888.84;5073589;27;69992;-31
2021/05/30 03:07:57;;;;;;;8.40;4.70;;;;;;;30.48;55.33;100888.97;5064327;27;66083;-32
2021/05/30 03:10:28;;;;;;;5.82;3.50;;;;;;;30.37;54.94;100880.69;5069500;28;68636;-32
2021/05/30 03:12:59;;;;;;;4.63;3.92;;;;;;;30.25;54.25;100875.94;5067535;28;66206;-32
2021/05/30 03:15:32;;;;;;;9.98;4.00;;;;;;;30.16;53.37;100863.69;5066783;28;69822;-34
2021/05/30 03:18:03;;;;;;;5.47;3.80;;;;;;;30.13;52.96;100858.72;5070903;27;64823;-32
2021/05/30 03:20:34;;;;;;;11.05;3.28;;;;;;;30.10;53.29;100869.16;5070374;27;68405;-32
2021/05/30 03:23:05;;;;;;;6.85;3.63;;;;;;;30.03;53.35;100866.47;5068088;27;66264;-34
2021/05/30 03:25:36;;;;;;;3.58;3.28;;;;;;;30.01;52.94;100866.69;5068893;27;70209;-32
2021/05/30 03:28:07;;;;;;;13.63;3.60;;;;;;;29.95;51.58;100859.44;5065212;27;66310;-35
2021/05/30 03:30:38;;;;;;;7.90;3.47;;;;;;;29.95;51.14;100869.41;5065172;27;70022;-33
2021/05/30 03:33:08;;;;;;;6.03;3.70;;;;;;;29.88;49.54;100855.91;5063801;27;66859;-34
2021/05/30 03:35:39;;;;;;;4.10;3.47;;;;;;;29.85;48.51;100850.94;5061357;28;70046;-33
2021/05/30 03:38:11;;;;;;;8.82;3.45;;;;;;;29.80;47.78;100843.47;5064291;28;65877;-33
2021/05/30 03:40:59;;;;;;;10.32;3.55;;;;;;;29.61;47.19;100815.44;5065865;28;69996;-31
2021/05/30 03:43:31;;;;;;;4.10;3.55;;;;;;;29.74;48.35;100844.31;5063874;27;66284;-32
2021/05/30 03:46:02;;;;;;;10.70;3.88;;;;;;;29.72;47.78;100824.78;5063471;27;70260;-31
2021/05/30 03:48:34;;;;;;;6.72;3.28;;;;;;;29.78;48.45;100832.06;5070010;27;66169;-33
2021/05/30 03:51:04;;;;;;;4.50;3.65;;;;;;;29.72;47.07;100813.97;5058272;28;69886;-33
2021/05/30 03:53:35;;;;;;;6.05;3.40;;;;;;;29.70;46.41;100815.22;5061868;27;66320;-32
2021/05/30 03:56:05;;;;;;;9.55;2.90;;;;;;;29.67;46.56;100802.97;5062960;27;69309;-32
2021/05/30 03:58:36;;;;;;;5.78;3.63;;;;;;;29.62;46.67;100794.66;5061412;27;64938;-32
2021/05/30 04:01:07;;;;;;;4.32;3.33;;;;;;;29.72;45.59;100803.16;5060155;28;69266;-31
2021/05/30 04:03:37;;;;;;;10.70;3.35;;;;;;;29.70;45.40;100802.56;5066947;28;66754;-32
2021/05/30 04:06:08;;;;;;;4.85;3.53;;;;;;;29.74;46.59;100800.25;5062073;27;69885;-32
2021/05/30 04:08:39;;;;;;;11.38;3.10;;;;;;;29.65;46.32;100785.31;5062527;27;65939;-33
2021/05/30 04:11:11;;;;;;;30.48;4.15;;;;;;;29.71;46.55;100796.09;5065973;27;70859;-32
2021/05/30 04:13:41;;;;;;;19.92;3.67;;;;;;;29.61;46.77;100779.47;5060390;27;66428;-31
2021/05/30 04:16:12;;;;;;;32.30;3.85;;;;;;;29.69;46.42;100776.53;5054309;28;71322;-32
2021/05/30 04:18:43;;;;;;;26.00;3.90;;;;;;;29.72;46.98;100786.94;5060248;28;65556;-31
2021/05/30 04:21:17;;;;;;;20.48;3.70;;;;;;;29.65;46.50;100780.72;5067077;28;70063;-31
2021/05/30 04:24:15;;;;;;;23.25;3.70;;;;;;;29.64;47.13;100779.06;5081251;27;66753;-31
2021/05/30 04:27:25;;;;;;;26.13;3.78;;;;;;;29.70;46.52;100772.81;5027239;28;70562;-31
2021/05/30 04:30:12;;;;;;;18.17;3.50;;;;;;;29.36;46.54;100712.66;5023051;28;65910;-32
2021/05/30 04:32:46;;;;;;;33.65;4.07;;;;;;;29.60;46.05;100753.47;5032107;28;69264;-32
2021/05/30 04:35:18;;;;;;;25.35;3.85;;;;;;;29.64;45.21;100757.44;5035396;28;66140;-32
2021/05/30 04:38:00;;;;;;;;;;;;;;;29.28;44.77;100745.28;5033921;28;68201;-32
2021/05/30 04:40:50;;;;;;;25.42;4.10;;;;;;;29.54;44.83;100748.94;5031624;28;67611;-32
2021/05/30 04:43:40;;;;;;;43.90;3.83;;;;;;;29.30;44.10;100702.66;5030869;28;70439;-31
2021/05/30 04:46:25;;;;;;;37.00;5.15;;;;;;;29.59;44.77;100743.72;5030274;28;66183;-32
2021/05/30 04:49:18;;;;;;;39.72;4.65;;;;;;;29.56;45.22;100736.88;4966339;28;70490;-31
2021/05/30 04:52:22;;;;;;;37.60;4.30;;;;;;;29.60;45.21;100735.38;4948934;28;66836;-31
2021/05/30 04:55:16;;;;;;;33.60;4.45;;;;;;;29.67;46.80;100729.13;4939341;28;70212;-37
2021/05/30 04:58:22;;;;;;;43.75;5.13;;;;;;;29.69;48.25;100722.47;4860770;29;66900;-36
2021/05/30 05:01:14;;;;;;;40.10;4.43;;;;;;;29.68;48.15;100726.25;4871548;29;70740;-36
2021/05/30 05:03:51;;;;;;;38.25;4.00;;;;;;;29.70;47.31;100729.56;4878797;29;66172;-36
2021/05/30 05:06:35;;;;;;;46.15;4.47;;;;;;;29.77;47.05;100726.81;4891273;29;70190;-36
2021/05/30 05:09:29;;;;;;;32.92;4.38;;;;;;;29.80;46.92;100718.25;4891834;29;67200;-36
2021/05/30 05:12:10;;;;;;;25.17;4.22;;;;;;;29.82;45.37;100711.59;4892986;28;70237;-37
2021/05/30 05:14:57;;;;;;;31.83;4.10;;;;;;;29.78;45.71;100710.38;4892757;28;66238;-35
2021/05/30 05:17:43;;;;;;;30.33;4.43;;;;;;;29.86;45.42;100711.16;4882920;28;69281;-36
2021/05/30 05:20:36;;;;;;;32.92;3.88;;;;;;;29.95;45.25;100699.03;4896037;28;66665;-33
2021/05/30 05:23:39;;;;;;;30.92;3.72;;;;;;;29.98;44.83;100704.84;4900773;28;70468;-34
2021/05/30 05:26:45;;;;;;;14.82;3.15;;;;;;;29.96;44.29;100695.28;4885716;28;66499;-33
2021/05/30 05:29:46;;;;;;;16.08;3.17;;;;;;;29.93;43.72;100706.53;5047865;28;70318;-33
2021/05/30 05:32:28;;;;;;;12.93;3.20;;;;;;;29.89;43.38;100689.09;5054025;28;66612;-35
2021/05/30 05:35:03;;;;;;;14.18;2.97;;;;;;;29.96;42.24;100690.72;5069310;28;69601;-33
2021/05/30 05:37:42;;;;;;;12.02;2.80;;;;;;;29.91;42.12;100682.41;5071214;27;66219;-33
2021/05/30 05:40:14;;;;;;;10.93;3.00;;;;;;;29.99;41.83;100679.44;5071401;27;70592;-35
2021/05/30 05:42:48;;;;;;;12.85;3.30;;;;;;;29.99;41.82;100674.03;5068211;27;66337;-34
2021/05/30 05:45:23;;;;;;;10.00;2.80;;;;;;;30.01;40.96;100673.84;5069069;28;70400;-33
2021/05/30 05:47:53;;;;;;;13.38;3.25;;;;;;;30.01;40.83;100674.66;5071024;28;66310;-35
2021/05/30 05:50:25;;;;;;;6.73;2.93;;;;;;;30.02;41.36;100673.59;5071967;28;70142;-32
2021/05/30 05:52:56;;;;;;;8.63;2.33;;;;;;;30.03;40.66;100669.00;5070412;27;65814;-34
2021/05/30 05:55:28;;;;;;;5.28;2.92;;;;;;;30.07;40.94;100675.66;5067497;28;70380;-34
2021/05/30 05:58:00;;;;;;;10.02;2.28;;;;;;;30.10;41.43;100666.28;5070798;27;65647;-35
2021/05/30 06:00:32;;;;;;;6.00;2.60;;;;;;;30.12;40.83;100662.31;5071421;28;69707;-34
2021/05/30 06:03:05;;;;;;;9.75;2.35;;;;;;;30.18;41.17;100656.00;5071866;28;65455;-38
2021/05/30 06:05:38;;;;;;;7.93;2.65;;;;;;;30.16;40.98;100641.84;5075412;28;69048;-33
2021/05/30 06:08:09;;;;;;;6.25;2.30;;;;;;;30.22;40.82;100643.69;5076132;27;65511;-35
2021/05/30 06:10:41;;;;;;;5.72;2.85;;;;;;;30.15;40.26;100634.81;5065852;28;70097;-33
2021/05/30 06:13:14;;;;;;;5.80;2.13;;;;;;;30.18;40.54;100637.06;5071332;28;65004;-35
2021/05/30 06:15:50;;;;;;;6.55;2.47;;;;;;;30.16;40.39;100631.03;5071965;28;69327;-34
2021/05/30 06:18:27;;;;;;;12.45;2.50;;;;;;;30.15;40.46;100632.09;5068480;28;66256;-34
2021/05/30 06:20:58;;;;;;;3.90;2.13;;;;;;;30.12;40.52;100623.59;5069719;27;69929;-34
2021/05/30 06:23:29;;;;;;;5.95;2.78;;;;;;;30.10;39.71;100626.50;5078164;27;66419;-34
2021/05/30 06:26:00;;;;;;;4.70;2.70;;;;;;;30.04;40.14;100616.59;5072650;27;69276;-34
2021/05/30 06:28:33;;;;;;;9.95;2.45;;;;;;;30.07;39.45;100624.25;5065747;28;65553;-33
2021/05/30 06:31:08;;;;;;;5.15;2.28;;;;;;;30.04;39.66;100606.59;5078171;28;70583;-34
2021/05/30 06:33:42;;;;;;;5.00;2.72;;;;;;;30.10;39.62;100604.06;5071795;28;66746;-35
2021/05/30 06:36:13;;;;;;;4.50;2.33;;;;;;;30.11;39.21;100603.81;5069500;27;71657;-34
2021/05/30 06:38:49;;;;;;;3.63;2.03;;;;;;;30.13;39.55;100604.44;5078396;27;66107;-35
2021/05/30 06:41:20;;;;;;;2.75;1.75;;;;;;;30.21;40.17;100603.31;5073390;27;70693;-32
2021/05/30 06:43:55;;;;;;;2.38;1.65;;;;;;;30.19;39.22;100600.00;5069517;27;66592;-33
2021/05/30 06:46:30;;;;;;;3.40;2.00;;;;;;;30.20;39.85;100588.97;5072371;27;70026;-34
2021/05/30 06:49:03;;;;;;;2.17;1.85;;;;;;;30.21;39.65;100595.22;5068877;28;65933;-34
2021/05/30 06:51:34;;;;;;;3.38;2.03;;;;;;;30.19;39.65;100587.31;5068286;27;69011;-33
2021/05/30 06:54:09;;;;;;;3.15;1.95;;;;;;;30.20;39.47;100594.38;5078076;27;65928;-34
2021/05/30 06:56:39;;;;;;;2.63;2.05;;;;;;;30.25;39.74;100580.22;5070577;27;70000;-33
2021/05/30 06:59:13;;;;;;;4.88;1.70;;;;;;;30.20;39.89;100556.50;5076456;28;65968;-32
2021/05/30 07:01:44;;;;;;;3.25;2.10;;;;;;;30.37;39.47;100572.16;5070233;28;71323;-33
2021/05/30 07:04:15;;;;;;;3.22;2.13;;;;;;;30.38;39.75;100563.84;5069741;27;66280;-33
2021/05/30 07:06:49;;;;;;;6.15;2.33;;;;;;;30.42;39.03;100564.22;5073280;28;70291;-33
2021/05/30 07:09:21;;;;;;;4.85;1.73;;;;;;;30.42;39.16;100559.66;5075356;27;66017;-33
2021/05/30 07:11:53;;;;;;;1.55;1.38;;;;;;;30.41;38.92;100562.56;5076717;27;69892;-33
2021/05/30 07:14:24;;;;;;;4.55;1.88;;;;;;;30.41;38.92;100557.97;5073583;27;65977;-33
2021/05/30 07:16:56;;;;;;;6.57;1.65;;;;;;;30.44;38.80;100556.69;5070175;28;69219;-32
2021/05/30 07:19:28;;;;;;;7.72;1.90;;;;;;;30.45;39.09;100552.94;5066335;28;65420;-34
2021/05/30 07:22:01;;;;;;;18.73;2.35;;;;;;;30.47;38.54;100542.72;5065447;28;69941;-33
2021/05/30 07:24:32;;;;;;;8.10;1.93;;;;;;;30.47;38.59;100540.00;5068406;27;65821;-33
2021/05/30 07:27:07;;;;;;;39.42;2.60;;;;;;;30.55;39.05;100541.59;5066025;27;69184;-33
2021/05/30 07:29:38;;;;;;;32.72;2.65;;;;;;;30.56;39.16;100533.22;5069019;27;66593;-34
2021/05/30 07:32:12;;;;;;;37.40;3.05;;;;;;;30.58;39.49;100536.53;5066407;28;69686;-34
2021/05/30 07:34:47;;;;;;;41.45;3.72;;;;;;;30.58;39.15;100533.84;5068407;28;66243;-34
2021/05/30 07:37:21;;;;;;;37.28;3.13;;;;;;;30.58;39.73;100530.31;5066923;28;70889;-34
2021/05/30 07:39:55;;;;;;;38.75;2.60;;;;;;;30.56;39.22;100525.09;5068055;28;66438;-33
2021/05/30 07:42:31;;;;;;;30.48;3.00;;;;;;;30.49;39.30;100511.66;5065770;27;70035;-33
2021/05/30 07:45:07;;;;;;;28.08;2.75;;;;;;;30.58;39.62;100514.88;5069254;28;66606;-33
2021/05/30 07:47:38;;;;;;;11.18;2.85;;;;;;;30.62;39.96;100515.25;5066903;28;69681;-33
2021/05/30 07:50:14;;;;;;;45.03;3.33;;;;;;;30.73;40.31;100509.91;5065975;28;65998;-31
2021/05/30 07:52:48;;;;;;;35.42;3.17;;;;;;;30.66;41.17;100467.75;5069666;27;69903;-34
2021/05/30 07:55:25;;;;;;;22.95;2.65;;;;;;;31.07;42.34;100501.38;5069129;27;65305;-34
2021/05/30 07:57:58;;;;;;;38.85;3.17;;;;;;;31.27;43.40;100506.50;5068123;28;69362;-34
2021/05/30 08:00:29;;;;;;;19.93;2.40;;;;;;;31.42;43.75;100492.53;5070050;27;65364;-34
2021/05/30 08:03:01;;;;;;;32.85;2.75;;;;;;;31.57;44.07;100491.00;5067668;27;69784;-33
2021/05/30 08:05:33;;;;;;;22.10;2.80;;;;;;;31.73;43.87;100489.50;5065905;27;65987;-32
2021/05/30 08:08:07;;;;;;;28.08;3.08;;;;;;;31.81;44.56;100474.75;5066373;27;71524;-35
2021/05/30 08:10:38;;;;;;;10.05;2.40;;;;;;;31.90;45.46;100478.75;5071604;27;64614;-33
2021/05/30 08:13:11;;;;;;;15.80;2.95;;;;;;;31.97;50.55;100479.47;5068956;28;69735;-34
2021/05/30 08:15:42;;;;;;;3.88;2.42;;;;;;;32.04;53.01;100474.78;5069133;28;65045;-34
2021/05/30 08:18:13;;;;;;;4.22;2.53;;;;;;;32.16;54.10;100472.03;5068724;27;69222;-34
2021/05/30 08:20:47;;;;;;;3.60;2.20;;;;;;;32.15;55.20;100464.97;5061165;28;66343;-34
2021/05/30 08:23:17;;;;;;;8.20;2.50;;;;;;;32.28;55.46;100469.28;5067139;27;70500;-34
2021/05/30 08:25:48;;;;;;;10.50;2.20;;;;;;;32.32;55.87;100459.63;5067367;27;66032;-34
2021/05/30 08:28:20;;;;;;;5.10;2.22;;;;;;;32.40;55.42;100472.81;5049568;28;69986;-35
2021/05/30 08:30:51;;;;;;;3.30;2.40;;;;;;;32.43;55.16;100466.91;5050448;28;64408;-34
2021/05/30 08:33:23;;;;;;;10.10;2.33;;;;;;;32.45;55.15;100467.47;5062057;27;69262;-34
2021/05/30 08:35:53;;;;;;;12.40;2.97;;;;;;;32.52;54.97;100461.94;5066587;27;65554;-34
2021/05/30 08:38:24;;;;;;;5.18;2.42;;;;;;;32.52;55.33;100444.84;5067349;27;70047;-35
2021/05/30 08:40:59;;;;;;;3.97;2.20;;;;;;;32.58;55.41;100455.53;5063653;27;66030;-33
2021/05/30 08:43:30;;;;;;;6.85;2.35;;;;;;;32.63;54.94;100454.81;5067710;28;69616;-32
2021/05/30 08:46:01;;;;;;;7.30;2.28;;;;;;;32.65;54.71;100452.66;5060742;27;66004;-35
2021/05/30 08:48:36;;;;;;;3.13;2.25;;;;;;;32.69;54.53;100459.28;5066111;28;69518;-33
2021/05/30 08:51:12;;;;;;;12.57;2.55;;;;;;;32.61;55.22;100435.22;5057881;27;66760;-33
2021/05/30 08:53:43;;;;;;;11.88;2.38;;;;;;;32.80;55.13;100455.69;5069219;27;69275;-33
2021/05/30 08:56:30;;;;;;;7.93;3.17;;;;;;;32.92;55.20;100458.31;5065478;27;66380;-34
2021/05/30 08:59:36;;;;;;;;;;;;;;;32.81;55.88;100456.50;5064645;28;69144;-33
2021/05/30 09:02:13;;;;;;;10.15;3.80;;;;;;;33.13;54.55;100448.69;5068095;28;66611;-34
2021/05/30 09:04:52;;;;;;;15.45;3.38;;;;;;;33.02;54.37;100411.53;5064013;28;69818;-33
2021/05/30 09:07:43;;;;;;;14.32;3.58;;;;;;;33.00;54.60;100397.38;5067533;27;65329;-33
2021/05/30 09:10:25;;;;;;;5.65;2.72;;;;;;;33.55;53.61;100440.13;5063756;27;69940;-36
2021/05/30 09:13:16;;;;;;;8.77;3.08;;;;;;;33.70;52.30;100443.06;5069488;28;65965;-35
2021/05/30 09:15:52;;;;;;;3.92;2.92;;;;;;;33.84;53.80;100442.72;5071182;28;70349;-34
2021/05/30 09:18:33;;;;;;;5.10;3.33;;;;;;;33.92;53.24;100445.00;5067766;27;66341;-35
2021/05/30 09:21:09;;;;;;;8.75;3.63;;;;;;;34.02;53.83;100450.59;5066367;27;70675;-34
2021/05/30 09:23:45;;;;;;;3.47;3.17;;;;;;;34.07;53.66;100447.94;5070680;28;66184;-35
2021/05/30 09:26:21;;;;;;;7.32;3.50;;;;;;;33.78;52.78;100401.84;5065902;28;69507;-36
2021/05/30 09:29:12;;;;;;;4.25;3.50;;;;;;;33.98;53.78;100449.44;5049115;28;65434;-34
2021/05/30 09:31:59;;;;;;;4.68;2.90;;;;;;;33.87;55.02;100434.03;5069530;27;69860;-35
2021/05/30 09:34:41;;;;;;;9.77;2.78;;;;;;;33.25;56.16;100348.84;5067031;28;65049;-35
2021/05/30 09:37:11;;;;;;;12.70;3.42;;;;;;;33.87;55.71;100443.03;5075953;27;70253;-36
2021/05/30 09:39:45;;;;;;;4.80;3.30;;;;;;;33.85;56.04;100450.63;5074638;27;66549;-38
2021/05/30 09:42:36;;;;;;;3.88;3.50;;;;;;;33.50;56.33;100394.63;5074323;28;69984;-33
2021/05/30 09:45:09;;;;;;;5.72;2.72;;;;;;;33.49;55.87;100392.13;5075539;27;66628;-34
2021/05/30 09:47:45;;;;;;;7.65;3.47;;;;;;;33.76;55.48;100452.94;5066045;27;68767;-34
2021/05/30 09:50:20;;;;;;;9.00;3.25;;;;;;;33.55;56.14;100412.94;5073533;28;65872;-34
2021/05/30 09:52:52;;;;;;;9.30;3.25;;;;;;;33.81;56.10;100465.81;5073159;27;70194;-35
2021/05/30 09:55:29;;;;;;;15.77;3.70;;;;;;;33.49;56.45;100408.44;5076796;27;66489;-35
2021/05/30 09:58:18;;;;;;;5.43;2.92;;;;;;;33.66;57.14;100439.22;5072518;27;69483;-35
2021/05/30 10:00:51;;;;;;;8.65;3.50;;;;;;;33.80;56.27;100448.66;5067305;28;65890;-34
2021/05/30 10:03:23;;;;;;;7.25;3.45;;;;;;;33.79;56.38;100452.47;5070123;27;69344;-34
2021/05/30 10:05:54;;;;;;;6.60;2.90;;;;;;;33.76;56.84;100439.34;5069083;27;65772;-35
2021/05/30 10:08:25;;;;;;;9.23;3.28;;;;;;;33.78;56.19;100439.09;5068163;27;69266;-33
2021/05/30 10:10:56;;;;;;;5.38;4.00;;;;;;;33.79;56.01;100444.31;5067640;28;65940;-33
2021/05/30 10:13:29;;;;;;;8.57;3.90;;;;;;;33.81;56.09;100438.59;5071874;27;69112;-34
2021/05/30 10:16:00;;;;;;;9.15;4.20;;;;;;;33.71;56.28;100428.41;5067846;28;66893;-33
2021/05/30 10:18:37;;;;;;;8.73;4.23;;;;;;;33.80;56.67;100445.94;5069198;27;69697;-34
2021/05/30 10:21:15;;;;;;;8.63;3.53;;;;;;;33.54;56.96;100398.53;5070030;28;43407;-34
2021/05/30 10:23:51;;;;;;;13.10;4.10;;;;;;;33.70;56.01;100426.75;5069311;28;69979;-34
2021/05/30 10:26:23;;;;;;;6.70;4.22;;;;;;;33.81;54.54;100447.56;5063136;28;66432;-34
2021/05/30 10:29:08;;;;;;;10.45;3.90;;;;;;;33.83;54.63;100449.25;5066426;27;70105;-34
2021/05/30 10:31:40;;;;;;;4.90;3.45;;;;;;;33.51;54.92;100400.88;5068507;28;66445;-34
2021/05/30 10:34:13;;;;;;;8.25;3.67;;;;;;;33.85;54.81;100452.50;5063840;28;70073;-34
2021/05/30 10:36:55;;;;;;;15.30;4.13;;;;;;;33.87;54.44;100455.81;5067502;28;64929;-34
2021/05/30 10:39:35;;;;;;;5.43;4.85;;;;;;;33.90;54.16;100452.59;5068147;28;69973;-34
2021/05/30 10:42:21;;;;;;;4.82;4.40;;;;;;;33.87;56.08;100458.53;5070813;28;65519;-33
2021/05/30 10:45:01;;;;;;;6.50;5.10;;;;;;;33.71;55.99;100431.13;5051477;28;69457;-33
2021/05/30 10:47:43;;;;;;;12.88;5.10;;;;;;;33.85;56.55;100455.22;5072265;27;65755;-34
2021/05/30 10:50:20;;;;;;;9.50;5.18;;;;;;;33.59;56.66;100403.19;5067617;28;70285;-34
2021/05/30 10:52:54;;;;;;;10.00;5.75;;;;;;;33.86;55.42;100446.00;5063706;28;66319;-37
2021/05/30 10:55:35;;;;;;;9.38;5.30;;;;;;;33.84;57.25;100443.53;5070932;28;70482;-35
2021/05/30 10:58:19;;;;;;;6.18;5.25;;;;;;;33.86;57.42;100446.00;5070271;27;66367;-37
2021/05/30 11:00:51;;;;;;;9.85;5.30;;;;;;;33.84;56.16;100440.81;5067704;27;69900;-34
2021/05/30 11:03:21;;;;;;;;;;;;;;;33.59;55.69;100446.72;5071098;27;66606;-35
2021/05/30 11:06:07;;;;;;;9.20;5.15;;;;;;;33.77;54.77;100443.72;5073823;28;69915;-34
2021/05/30 11:08:37;;;;;;;8.27;5.18;;;;;;;33.84;55.74;100450.88;5068651;27;66490;-33
2021/05/30 11:11:25;;;;;;;11.40;4.83;;;;;;;33.38;55.56;100392.00;5066732;27;71735;-34
2021/05/30 11:14:09;;;;;;;10.07;5.38;;;;;;;33.41;55.88;100384.44;5049941;28;66025;-35
2021/05/30 11:16:45;;;;;;;6.82;6.13;;;;;;;33.44;55.39;100402.97;5068025;27;70853;-33
2021/05/30 11:19:18;;;;;;;17.48;5.72;;;;;;;33.44;56.05;100400.25;5059367;28;65120;-35
2021/05/30 11:21:51;;;;;;;13.45;6.03;;;;;;;33.76;55.83;100438.53;5068872;27;69928;-34
2021/05/30 11:24:24;;;;;;;;;;;;;;;33.59;56.51;100436.66;5068837;27;65944;-34
2021/05/30 11:27:06;;;;;;;10.82;5.68;;;;;;;33.52;56.27;100386.22;5073567;27;69971;-35
2021/05/30 11:29:36;;;;;;;11.40;6.00;;;;;;;33.89;56.13;100445.50;5055162;28;66003;-35
2021/05/30 11:32:07;;;;;;;8.75;5.95;;;;;;;33.93;55.76;100438.47;5055374;28;69858;-34
2021/05/30 11:34:38;;;;;;;6.40;5.80;;;;;;;33.94;56.04;100426.53;5075109;27;67129;-34
2021/05/30 11:37:11;;;;;;;6.57;5.68;;;;;;;34.03;56.17;100435.91;5063577;28;70091;-34
2021/05/30 11:39:43;;;;;;;6.10;5.55;;;;;;;33.78;56.01;100380.06;5078100;27;65135;-34
2021/05/30 11:42:14;;;;;;;6.63;6.03;;;;;;;34.07;56.53;100431.63;5068190;27;69946;-34
2021/05/30 11:44:44;;;;;;;7.28;5.72;;;;;;;34.07;56.96;100428.88;5073483;27;66273;-34
2021/05/30 11:47:15;;;;;;;8.88;4.90;;;;;;;34.01;55.83;100443.47;5067383;27;69263;-34
2021/05/30 11:49:46;;;;;;;7.88;5.97;;;;;;;33.86;54.48;100446.00;5063382;28;65889;-34
2021/05/30 11:52:19;;;;;;;8.25;5.63;;;;;;;33.66;53.24;100450.09;5072836;28;68786;-34
2021/05/30 11:54:54;;;;;;;7.60;5.72;;;;;;;33.46;51.92;100452.44;5070193;27;65504;-33
2021/05/30 11:57:26;;;;;;;7.25;5.50;;;;;;;33.29;51.05;100447.88;5065143;28;69011;-35
2021/05/30 12:00:03;;;;;;;7.50;5.25;;;;;;;32.83;50.18;100405.47;5069440;28;66496;-35